sensor_id;sensor_type;location;lat;lon;timestamp;temperature;humidity
9699;DHT22;10089;47.876;8.346;2023-11-19T00:02:19;7.60;99.90
9699;DHT22;10089;47.876;8.346;2023-11-19T00:04:45;7.50;99.90
9699;DHT22;10089;47.876;8.346;2023-11-19T00:07:10;7.50;99.90
9699;DHT22;10089;47.876;8.346;2023-11-19T00:09:38;7.70;99.90
9699;DHT22;10089;47.876;8.346;2023-11-19T00:12:06;7.60;99.90
9699;DHT22;10089;47.876;8.346;2023-11-19T00:14:42;7.80;99.90
9699;DHT22;10089;47.876;8.346;2023-11-19T00:17:08;7.70;99.90
9699;DHT22;10089;47.876;8.346;2023-11-19T00:19:34;7.70;99.90
9699;DHT22;10089;47.876;8.346;2023-11-19T00:22:01;7.60;99.90
9699;DHT22;10089;47.876;8.346;2023-11-19T00:24:29;8.00;99.90
9699;DHT22;10089;47.876;8.346;2023-11-19T00:27:01;7.90;99.90
9699;DHT22;10089;47.876;8.346;2023-11-19T00:29:28;8.00;99.90
9699;DHT22;10089;47.876;8.346;2023-11-19T00:31:54;8.00;99.90
9699;DHT22;10089;47.876;8.346;2023-11-19T00:34:19;8.10;99.90
9699;DHT22;10089;47.876;8.346;2023-11-19T00:36:49;8.10;99.90
9699;DHT22;10089;47.876;8.346;2023-11-19T00:39:16;8.10;99.90
9699;DHT22;10089;47.876;8.346;2023-11-19T00:41:42;8.10;99.90
9699;DHT22;10089;47.876;8.346;2023-11-19T00:44:08;8.80;99.90
9699;DHT22;10089;47.876;8.346;2023-11-19T00:46:37;8.20;99.90
9699;DHT22;10089;47.876;8.346;2023-11-19T00:49:03;7.30;99.90
9699;DHT22;10089;47.876;8.346;2023-11-19T00:51:30;8.20;99.90
9699;DHT22;10089;47.876;8.346;2023-11-19T00:53:57;8.40;99.90
9699;DHT22;10089;47.876;8.346;2023-11-19T00:56:23;9.30;99.90
9699;DHT22;10089;47.876;8.346;2023-11-19T00:58:51;8.70;99.90
9699;DHT22;10089;47.876;8.346;2023-11-19T01:01:19;8.30;99.90
9699;DHT22;10089;47.876;8.346;2023-11-19T01:03:46;8.60;99.90
9699;DHT22;10089;47.876;8.346;2023-11-19T01:06:12;8.40;99.90
9699;DHT22;10089;47.876;8.346;2023-11-19T01:08:39;8.50;99.90
9699;DHT22;10089;47.876;8.346;2023-11-19T01:11:05;8.40;99.90
9699;DHT22;10089;47.876;8.346;2023-11-19T01:13:35;8.30;99.90
9699;DHT22;10089;47.876;8.346;2023-11-19T01:16:07;8.70;99.90
9699;DHT22;10089;47.876;8.346;2023-11-19T01:18:35;8.50;99.90
9699;DHT22;10089;47.876;8.346;2023-11-19T01:21:01;8.50;99.90
9699;DHT22;10089;47.876;8.346;2023-11-19T01:23:28;8.50;99.90
9699;DHT22;10089;47.876;8.346;2023-11-19T01:25:54;8.50;99.90
9699;DHT22;10089;47.876;8.346;2023-11-19T01:28:19;8.70;99.90
9699;DHT22;10089;47.876;8.346;2023-11-19T01:30:45;9.50;99.90
9699;DHT22;10089;47.876;8.346;2023-11-19T01:33:11;8.50;99.90
9699;DHT22;10089;47.876;8.346;2023-11-19T01:35:36;9.50;99.90
9699;DHT22;10089;47.876;8.346;2023-11-19T01:38:02;8.60;99.90
9699;DHT22;10089;47.876;8.346;2023-11-19T01:40:27;8.80;99.90
9699;DHT22;10089;47.876;8.346;2023-11-19T01:42:53;8.70;99.90
9699;DHT22;10089;47.876;8.346;2023-11-19T01:45:39;8.70;99.90
9699;DHT22;10089;47.876;8.346;2023-11-19T01:48:05;9.30;99.90
9699;DHT22;10089;47.876;8.346;2023-11-19T01:50:32;8.60;99.90
9699;DHT22;10089;47.876;8.346;2023-11-19T01:52:58;8.70;99.90
9699;DHT22;10089;47.876;8.346;2023-11-19T01:55:25;9.00;99.90
9699;DHT22;10089;47.876;8.346;2023-11-19T01:57:54;9.10;99.90
9699;DHT22;10089;47.876;8.346;2023-11-19T02:00:30;9.00;99.90
9699;DHT22;10089;47.876;8.346;2023-11-19T02:03:01;9.70;99.90
9699;DHT22;10089;47.876;8.346;2023-11-19T02:05:27;9.50;99.90
9699;DHT22;10089;47.876;8.346;2023-11-19T02:07:53;8.60;99.90
9699;DHT22;10089;47.876;8.346;2023-11-19T02:10:19;9.20;99.90
9699;DHT22;10089;47.876;8.346;2023-11-19T02:12:44;8.40;99.90
9699;DHT22;10089;47.876;8.346;2023-11-19T02:15:11;8.90;99.90
9699;DHT22;10089;47.876;8.346;2023-11-19T02:17:37;8.80;99.90
9699;DHT22;10089;47.876;8.346;2023-11-19T02:20:06;8.80;99.90
9699;DHT22;10089;47.876;8.346;2023-11-19T02:22:35;8.80;99.90
9699;DHT22;10089;47.876;8.346;2023-11-19T02:25:04;8.80;99.90
9699;DHT22;10089;47.876;8.346;2023-11-19T02:30:13;8.80;99.90
9699;DHT22;10089;47.876;8.346;2023-11-19T02:32:41;8.90;99.90
9699;DHT22;10089;47.876;8.346;2023-11-19T02:35:07;8.80;99.90
9699;DHT22;10089;47.876;8.346;2023-11-19T02:37:38;8.80;99.90
9699;DHT22;10089;47.876;8.346;2023-11-19T02:40:04;8.80;99.90
9699;DHT22;10089;47.876;8.346;2023-11-19T02:42:31;8.80;99.90
9699;DHT22;10089;47.876;8.346;2023-11-19T02:44:57;9.80;99.90
9699;DHT22;10089;47.876;8.346;2023-11-19T02:47:23;9.20;99.90
9699;DHT22;10089;47.876;8.346;2023-11-19T02:49:49;8.70;99.90
9699;DHT22;10089;47.876;8.346;2023-11-19T02:52:18;8.90;99.90
9699;DHT22;10089;47.876;8.346;2023-11-19T02:54:44;9.10;99.90
9699;DHT22;10089;47.876;8.346;2023-11-19T02:57:10;9.00;99.90
9699;DHT22;10089;47.876;8.346;2023-11-19T02:59:39;9.40;99.90
9699;DHT22;10089;47.876;8.346;2023-11-19T03:02:07;8.80;99.90
9699;DHT22;10089;47.876;8.346;2023-11-19T03:04:33;8.80;99.90
9699;DHT22;10089;47.876;8.346;2023-11-19T03:06:59;8.90;99.90
9699;DHT22;10089;47.876;8.346;2023-11-19T03:09:24;8.90;99.90
9699;DHT22;10089;47.876;8.346;2023-11-19T03:11:50;8.90;99.90
9699;DHT22;10089;47.876;8.346;2023-11-19T03:14:17;9.00;99.90
9699;DHT22;10089;47.876;8.346;2023-11-19T03:16:47;9.40;99.90
9699;DHT22;10089;47.876;8.346;2023-11-19T03:19:12;8.80;99.90
9699;DHT22;10089;47.876;8.346;2023-11-19T03:21:38;8.70;99.90
9699;DHT22;10089;47.876;8.346;2023-11-19T03:24:03;8.80;99.90
9699;DHT22;10089;47.876;8.346;2023-11-19T03:26:29;8.70;99.90
9699;DHT22;10089;47.876;8.346;2023-11-19T03:28:55;8.80;99.90
9699;DHT22;10089;47.876;8.346;2023-11-19T03:31:22;8.70;99.90
9699;DHT22;10089;47.876;8.346;2023-11-19T03:33:49;8.40;99.90
9699;DHT22;10089;47.876;8.346;2023-11-19T03:36:15;8.50;99.90
9699;DHT22;10089;47.876;8.346;2023-11-19T03:38:41;8.70;99.90
9699;DHT22;10089;47.876;8.346;2023-11-19T03:41:11;8.80;99.90
9699;DHT22;10089;47.876;8.346;2023-11-19T03:43:38;8.80;99.90
9699;DHT22;10089;47.876;8.346;2023-11-19T03:46:05;8.70;99.90
9699;DHT22;10089;47.876;8.346;2023-11-19T03:48:40;8.80;99.90
9699;DHT22;10089;47.876;8.346;2023-11-19T03:51:06;8.20;99.90
9699;DHT22;10089;47.876;8.346;2023-11-19T03:53:32;8.80;99.90
9699;DHT22;10089;47.876;8.346;2023-11-19T03:55:57;9.30;99.90
9699;DHT22;10089;47.876;8.346;2023-11-19T03:58:24;8.80;99.90
9699;DHT22;10089;47.876;8.346;2023-11-19T04:00:49;8.90;99.90
9699;DHT22;10089;47.876;8.346;2023-11-19T04:03:15;8.80;99.90
9699;DHT22;10089;47.876;8.346;2023-11-19T04:05:41;8.80;99.90
9699;DHT22;10089;47.876;8.346;2023-11-19T04:08:06;8.80;99.90
9699;DHT22;10089;47.876;8.346;2023-11-19T04:10:32;8.60;99.90
9699;DHT22;10089;47.876;8.346;2023-11-19T04:12:57;8.80;99.90
9699;DHT22;10089;47.876;8.346;2023-11-19T04:15:23;9.80;99.90
9699;DHT22;10089;47.876;8.346;2023-11-19T04:17:49;8.90;99.90
9699;DHT22;10089;47.876;8.346;2023-11-19T04:20:15;8.90;99.90
9699;DHT22;10089;47.876;8.346;2023-11-19T04:22:41;8.80;99.90
9699;DHT22;10089;47.876;8.346;2023-11-19T04:25:07;8.90;99.90
9699;DHT22;10089;47.876;8.346;2023-11-19T04:27:32;8.90;99.90
9699;DHT22;10089;47.876;8.346;2023-11-19T04:29:58;8.90;99.90
9699;DHT22;10089;47.876;8.346;2023-11-19T04:32:23;8.90;99.90
9699;DHT22;10089;47.876;8.346;2023-11-19T04:34:50;8.90;99.90
9699;DHT22;10089;47.876;8.346;2023-11-19T04:37:16;9.20;99.90
9699;DHT22;10089;47.876;8.346;2023-11-19T04:39:44;10.20;99.90
9699;DHT22;10089;47.876;8.346;2023-11-19T04:42:10;9.00;99.90
9699;DHT22;10089;47.876;8.346;2023-11-19T04:44:36;9.10;99.90
9699;DHT22;10089;47.876;8.346;2023-11-19T04:47:02;8.70;99.90
9699;DHT22;10089;47.876;8.346;2023-11-19T04:49:28;9.10;99.90
9699;DHT22;10089;47.876;8.346;2023-11-19T04:51:53;10.40;99.90
9699;DHT22;10089;47.876;8.346;2023-11-19T04:54:19;9.60;99.90
9699;DHT22;10089;47.876;8.346;2023-11-19T04:56:45;9.20;99.90
9699;DHT22;10089;47.876;8.346;2023-11-19T04:59:12;9.20;99.90
9699;DHT22;10089;47.876;8.346;2023-11-19T05:01:37;9.00;99.90
9699;DHT22;10089;47.876;8.346;2023-11-19T05:04:03;9.20;99.90
9699;DHT22;10089;47.876;8.346;2023-11-19T05:06:30;9.10;99.90
9699;DHT22;10089;47.876;8.346;2023-11-19T05:08:56;9.10;99.90
9699;DHT22;10089;47.876;8.346;2023-11-19T05:11:22;9.10;99.90
9699;DHT22;10089;47.876;8.346;2023-11-19T05:13:48;8.90;99.90
9699;DHT22;10089;47.876;8.346;2023-11-19T05:16:14;9.30;99.90
9699;DHT22;10089;47.876;8.346;2023-11-19T05:18:40;9.10;99.90
9699;DHT22;10089;47.876;8.346;2023-11-19T05:21:06;9.10;99.90
9699;DHT22;10089;47.876;8.346;2023-11-19T05:23:33;9.00;99.90
9699;DHT22;10089;47.876;8.346;2023-11-19T05:26:02;9.10;99.90
9699;DHT22;10089;47.876;8.346;2023-11-19T05:28:27;9.10;99.90
9699;DHT22;10089;47.876;8.346;2023-11-19T05:30:54;9.10;99.90
9699;DHT22;10089;47.876;8.346;2023-11-19T05:33:19;8.80;99.90
9699;DHT22;10089;47.876;8.346;2023-11-19T05:35:45;9.00;99.90
9699;DHT22;10089;47.876;8.346;2023-11-19T05:38:10;9.20;99.90
9699;DHT22;10089;47.876;8.346;2023-11-19T05:40:37;9.10;99.90
9699;DHT22;10089;47.876;8.346;2023-11-19T05:43:06;9.10;99.90
9699;DHT22;10089;47.876;8.346;2023-11-19T05:45:32;9.10;99.90
9699;DHT22;10089;47.876;8.346;2023-11-19T05:47:58;9.10;99.90
9699;DHT22;10089;47.876;8.346;2023-11-19T05:50:24;9.20;99.90
9699;DHT22;10089;47.876;8.346;2023-11-19T05:52:50;10.20;99.90
9699;DHT22;10089;47.876;8.346;2023-11-19T05:55:16;9.60;99.90
9699;DHT22;10089;47.876;8.346;2023-11-19T05:57:41;9.90;99.90
9699;DHT22;10089;47.876;8.346;2023-11-19T06:00:08;9.30;99.90
9699;DHT22;10089;47.876;8.346;2023-11-19T06:02:35;9.30;99.90
9699;DHT22;10089;47.876;8.346;2023-11-19T06:05:03;9.10;99.90
9699;DHT22;10089;47.876;8.346;2023-11-19T06:07:31;9.30;99.90
9699;DHT22;10089;47.876;8.346;2023-11-19T06:09:56;9.30;99.90
9699;DHT22;10089;47.876;8.346;2023-11-19T06:12:22;9.50;99.90
9699;DHT22;10089;47.876;8.346;2023-11-19T06:14:48;9.40;99.90
9699;DHT22;10089;47.876;8.346;2023-11-19T06:17:14;9.10;99.90
9699;DHT22;10089;47.876;8.346;2023-11-19T06:19:39;9.10;99.90
9699;DHT22;10089;47.876;8.346;2023-11-19T06:22:06;9.60;99.90
9699;DHT22;10089;47.876;8.346;2023-11-19T06:24:32;9.40;99.90
9699;DHT22;10089;47.876;8.346;2023-11-19T06:26:57;9.30;99.90
9699;DHT22;10089;47.876;8.346;2023-11-19T06:29:24;9.30;99.90
9699;DHT22;10089;47.876;8.346;2023-11-19T06:31:50;9.40;99.90
9699;DHT22;10089;47.876;8.346;2023-11-19T06:34:15;9.40;99.90
9699;DHT22;10089;47.876;8.346;2023-11-19T06:36:41;9.50;99.90
9699;DHT22;10089;47.876;8.346;2023-11-19T06:39:09;9.40;99.90
9699;DHT22;10089;47.876;8.346;2023-11-19T06:41:35;9.40;99.90
9699;DHT22;10089;47.876;8.346;2023-11-19T06:44:03;9.70;99.90
9699;DHT22;10089;47.876;8.346;2023-11-19T06:46:30;9.40;99.90
9699;DHT22;10089;47.876;8.346;2023-11-19T06:48:56;9.40;99.90
9699;DHT22;10089;47.876;8.346;2023-11-19T06:51:22;9.30;99.90
9699;DHT22;10089;47.876;8.346;2023-11-19T06:53:49;10.40;99.90
9699;DHT22;10089;47.876;8.346;2023-11-19T06:56:22;9.30;99.90
9699;DHT22;10089;47.876;8.346;2023-11-19T06:58:48;9.30;99.90
9699;DHT22;10089;47.876;8.346;2023-11-19T07:01:19;9.30;99.90
9699;DHT22;10089;47.876;8.346;2023-11-19T07:03:45;9.40;99.90
9699;DHT22;10089;47.876;8.346;2023-11-19T07:06:12;10.00;99.90
9699;DHT22;10089;47.876;8.346;2023-11-19T07:08:43;9.50;99.90
9699;DHT22;10089;47.876;8.346;2023-11-19T07:11:13;9.50;99.90
9699;DHT22;10089;47.876;8.346;2023-11-19T07:13:42;9.50;99.90
9699;DHT22;10089;47.876;8.346;2023-11-19T07:16:08;9.10;99.90
9699;DHT22;10089;47.876;8.346;2023-11-19T07:18:35;9.50;99.90
9699;DHT22;10089;47.876;8.346;2023-11-19T07:21:01;9.50;99.90
9699;DHT22;10089;47.876;8.346;2023-11-19T07:23:28;9.50;99.90
9699;DHT22;10089;47.876;8.346;2023-11-19T07:25:54;9.80;99.90
9699;DHT22;10089;47.876;8.346;2023-11-19T07:28:19;10.00;99.90
9699;DHT22;10089;47.876;8.346;2023-11-19T07:30:45;10.30;99.90
9699;DHT22;10089;47.876;8.346;2023-11-19T07:33:10;10.70;99.90
9699;DHT22;10089;47.876;8.346;2023-11-19T07:35:37;9.60;99.90
9699;DHT22;10089;47.876;8.346;2023-11-19T07:38:03;9.90;99.90
9699;DHT22;10089;47.876;8.346;2023-11-19T07:40:28;9.60;99.90
9699;DHT22;10089;47.876;8.346;2023-11-19T07:42:54;9.70;99.90
9699;DHT22;10089;47.876;8.346;2023-11-19T07:45:20;9.60;99.90
9699;DHT22;10089;47.876;8.346;2023-11-19T07:47:46;9.70;99.90
9699;DHT22;10089;47.876;8.346;2023-11-19T07:50:12;9.80;99.90
9699;DHT22;10089;47.876;8.346;2023-11-19T07:52:42;9.70;99.90
9699;DHT22;10089;47.876;8.346;2023-11-19T07:55:08;10.30;99.90
9699;DHT22;10089;47.876;8.346;2023-11-19T07:57:34;9.40;99.90
9699;DHT22;10089;47.876;8.346;2023-11-19T07:59:59;10.50;99.90
9699;DHT22;10089;47.876;8.346;2023-11-19T08:02:26;9.90;99.90
9699;DHT22;10089;47.876;8.346;2023-11-19T08:04:52;9.80;99.90
9699;DHT22;10089;47.876;8.346;2023-11-19T08:07:21;9.90;99.90
9699;DHT22;10089;47.876;8.346;2023-11-19T08:09:47;10.40;99.90
9699;DHT22;10089;47.876;8.346;2023-11-19T08:12:13;10.00;99.90
9699;DHT22;10089;47.876;8.346;2023-11-19T08:14:43;10.30;99.90
9699;DHT22;10089;47.876;8.346;2023-11-19T08:17:11;10.40;99.90
9699;DHT22;10089;47.876;8.346;2023-11-19T08:19:36;10.00;99.90
9699;DHT22;10089;47.876;8.346;2023-11-19T08:22:02;10.00;99.90
9699;DHT22;10089;47.876;8.346;2023-11-19T08:24:32;10.40;99.90
9699;DHT22;10089;47.876;8.346;2023-11-19T08:26:57;10.20;99.90
9699;DHT22;10089;47.876;8.346;2023-11-19T08:29:23;10.40;99.90
9699;DHT22;10089;47.876;8.346;2023-11-19T08:31:48;11.50;99.90
9699;DHT22;10089;47.876;8.346;2023-11-19T08:34:23;10.40;99.90
9699;DHT22;10089;47.876;8.346;2023-11-19T08:36:51;10.50;99.90
9699;DHT22;10089;47.876;8.346;2023-11-19T08:39:19;10.70;99.90
9699;DHT22;10089;47.876;8.346;2023-11-19T08:41:47;11.10;99.90
9699;DHT22;10089;47.876;8.346;2023-11-19T08:44:13;10.80;99.90
9699;DHT22;10089;47.876;8.346;2023-11-19T08:46:47;11.20;99.90
9699;DHT22;10089;47.876;8.346;2023-11-19T08:49:12;11.10;99.90
9699;DHT22;10089;47.876;8.346;2023-11-19T08:51:38;11.00;99.90
9699;DHT22;10089;47.876;8.346;2023-11-19T08:54:04;11.10;99.90
9699;DHT22;10089;47.876;8.346;2023-11-19T08:56:29;11.00;99.90
9699;DHT22;10089;47.876;8.346;2023-11-19T08:58:58;11.40;99.90
9699;DHT22;10089;47.876;8.346;2023-11-19T09:01:24;11.20;99.90
9699;DHT22;10089;47.876;8.346;2023-11-19T09:03:50;11.90;99.90
9699;DHT22;10089;47.876;8.346;2023-11-19T09:06:15;10.80;99.90
9699;DHT22;10089;47.876;8.346;2023-11-19T09:08:42;10.80;99.90
9699;DHT22;10089;47.876;8.346;2023-11-19T09:11:08;11.50;99.90
9699;DHT22;10089;47.876;8.346;2023-11-19T09:13:35;10.60;99.90
9699;DHT22;10089;47.876;8.346;2023-11-19T09:16:01;11.10;99.90
9699;DHT22;10089;47.876;8.346;2023-11-19T09:18:32;11.40;99.90
9699;DHT22;10089;47.876;8.346;2023-11-19T09:21:04;11.50;99.90
9699;DHT22;10089;47.876;8.346;2023-11-19T09:23:31;11.60;72.20
9699;DHT22;10089;47.876;8.346;2023-11-19T09:26:01;11.60;77.40
9699;DHT22;10089;47.876;8.346;2023-11-19T09:28:27;11.50;34.50
9699;DHT22;10089;47.876;8.346;2023-11-19T09:30:52;11.60;12.00
9699;DHT22;10089;47.876;8.346;2023-11-19T09:33:18;11.70;3.90
9699;DHT22;10089;47.876;8.346;2023-11-19T09:35:44;11.70;1.00
9699;DHT22;10089;47.876;8.346;2023-11-19T09:38:09;11.80;1.00
9699;DHT22;10089;47.876;8.346;2023-11-19T09:40:35;12.10;1.00
9699;DHT22;10089;47.876;8.346;2023-11-19T09:43:01;12.00;1.00
9699;DHT22;10089;47.876;8.346;2023-11-19T09:45:28;12.00;1.00
9699;DHT22;10089;47.876;8.346;2023-11-19T09:47:55;12.20;1.00
9699;DHT22;10089;47.876;8.346;2023-11-19T09:50:23;11.90;1.00
9699;DHT22;10089;47.876;8.346;2023-11-19T09:52:48;11.90;1.00
9699;DHT22;10089;47.876;8.346;2023-11-19T09:55:15;12.40;1.00
9699;DHT22;10089;47.876;8.346;2023-11-19T09:57:41;12.60;1.00
9699;DHT22;10089;47.876;8.346;2023-11-19T10:00:10;12.70;1.00
9699;DHT22;10089;47.876;8.346;2023-11-19T10:02:36;12.70;1.00
9699;DHT22;10089;47.876;8.346;2023-11-19T10:05:06;12.80;1.00
9699;DHT22;10089;47.876;8.346;2023-11-19T10:07:32;12.90;1.00
9699;DHT22;10089;47.876;8.346;2023-11-19T10:10:00;12.80;1.00
9699;DHT22;10089;47.876;8.346;2023-11-19T10:12:27;13.00;1.00
9699;DHT22;10089;47.876;8.346;2023-11-19T10:14:57;12.60;1.00
9699;DHT22;10089;47.876;8.346;2023-11-19T10:17:48;12.50;1.00
9699;DHT22;10089;47.876;8.346;2023-11-19T10:21:22;12.20;1.00
9699;DHT22;10089;47.876;8.346;2023-11-19T10:23:55;12.20;1.00
9699;DHT22;10089;47.876;8.346;2023-11-19T10:30:44;12.80;1.00
9699;DHT22;10089;47.876;8.346;2023-11-19T10:33:35;12.80;1.00
9699;DHT22;10089;47.876;8.346;2023-11-19T10:36:07;12.80;1.00
9699;DHT22;10089;47.876;8.346;2023-11-19T10:38:36;12.80;1.00
9699;DHT22;10089;47.876;8.346;2023-11-19T10:41:03;13.30;1.00
9699;DHT22;10089;47.876;8.346;2023-11-19T10:43:51;13.00;1.00
9699;DHT22;10089;47.876;8.346;2023-11-19T10:46:42;13.00;1.00
9699;DHT22;10089;47.876;8.346;2023-11-19T10:49:54;13.40;1.00
9699;DHT22;10089;47.876;8.346;2023-11-19T10:52:33;13.30;99.90
9699;DHT22;10089;47.876;8.346;2023-11-19T10:55:36;13.50;99.90
9699;DHT22;10089;47.876;8.346;2023-11-19T11:06:29;13.00;99.90
9699;DHT22;10089;47.876;8.346;2023-11-19T11:08:55;12.90;99.90
9699;DHT22;10089;47.876;8.346;2023-11-19T11:14:46;12.90;99.90
9699;DHT22;10089;47.876;8.346;2023-11-19T11:17:24;12.80;99.90
9699;DHT22;10089;47.876;8.346;2023-11-19T11:19:56;12.90;99.90
9699;DHT22;10089;47.876;8.346;2023-11-19T11:22:28;12.60;99.90
9699;DHT22;10089;47.876;8.346;2023-11-19T11:25:04;12.70;99.90
9699;DHT22;10089;47.876;8.346;2023-11-19T11:30:29;12.90;99.90
9699;DHT22;10089;47.876;8.346;2023-11-19T11:35:39;13.10;99.90
9699;DHT22;10089;47.876;8.346;2023-11-19T11:38:09;13.00;1.00
9699;DHT22;10089;47.876;8.346;2023-11-19T11:40:35;13.20;99.90
9699;DHT22;10089;47.876;8.346;2023-11-19T11:43:02;13.30;1.00
9699;DHT22;10089;47.876;8.346;2023-11-19T11:45:40;13.30;1.00
9699;DHT22;10089;47.876;8.346;2023-11-19T11:48:15;13.50;1.00
9699;DHT22;10089;47.876;8.346;2023-11-19T11:50:51;13.70;1.00
9699;DHT22;10089;47.876;8.346;2023-11-19T11:53:19;13.50;99.90
9699;DHT22;10089;47.876;8.346;2023-11-19T11:58:19;13.50;99.90
9699;DHT22;10089;47.876;8.346;2023-11-19T12:00:51;13.40;1.00
9699;DHT22;10089;47.876;8.346;2023-11-19T12:03:22;13.50;99.90
9699;DHT22;10089;47.876;8.346;2023-11-19T12:05:58;13.50;1.00
9699;DHT22;10089;47.876;8.346;2023-11-19T12:08:59;13.40;99.90
9699;DHT22;10089;47.876;8.346;2023-11-19T12:11:49;13.40;99.90
9699;DHT22;10089;47.876;8.346;2023-11-19T12:15:02;13.50;99.90
9699;DHT22;10089;47.876;8.346;2023-11-19T12:18:32;13.50;1.00
9699;DHT22;10089;47.876;8.346;2023-11-19T12:24:19;13.20;1.00
9699;DHT22;10089;47.876;8.346;2023-11-19T12:26:54;13.30;1.00
9699;DHT22;10089;47.876;8.346;2023-11-19T12:29:27;12.80;99.90
9699;DHT22;10089;47.876;8.346;2023-11-19T12:31:54;13.00;1.00
9699;DHT22;10089;47.876;8.346;2023-11-19T12:34:20;12.80;99.90
9699;DHT22;10089;47.876;8.346;2023-11-19T12:36:51;12.70;99.90
9699;DHT22;10089;47.876;8.346;2023-11-19T12:39:23;12.70;99.90
9699;DHT22;10089;47.876;8.346;2023-11-19T12:42:39;12.70;99.90
9699;DHT22;10089;47.876;8.346;2023-11-19T12:45:17;12.90;99.90
9699;DHT22;10089;47.876;8.346;2023-11-19T12:47:45;12.60;99.90
9699;DHT22;10089;47.876;8.346;2023-11-19T12:50:16;12.30;1.00
9699;DHT22;10089;47.876;8.346;2023-11-19T12:52:56;12.20;1.00
9699;DHT22;10089;47.876;8.346;2023-11-19T12:55:28;12.20;1.00
9699;DHT22;10089;47.876;8.346;2023-11-19T12:57:54;12.10;1.00
9699;DHT22;10089;47.876;8.346;2023-11-19T13:00:25;12.30;1.00
9699;DHT22;10089;47.876;8.346;2023-11-19T13:02:56;12.00;1.00
9699;DHT22;10089;47.876;8.346;2023-11-19T13:05:33;12.00;1.00
9699;DHT22;10089;47.876;8.346;2023-11-19T13:08:06;12.00;1.00
9699;DHT22;10089;47.876;8.346;2023-11-19T13:10:34;12.00;1.00
9699;DHT22;10089;47.876;8.346;2023-11-19T13:13:08;12.10;1.00
9699;DHT22;10089;47.876;8.346;2023-11-19T13:15:35;12.20;1.00
9699;DHT22;10089;47.876;8.346;2023-11-19T13:18:01;12.10;1.00
9699;DHT22;10089;47.876;8.346;2023-11-19T13:20:28;12.00;1.00
9699;DHT22;10089;47.876;8.346;2023-11-19T13:22:58;12.10;1.00
9699;DHT22;10089;47.876;8.346;2023-11-19T13:25:25;12.00;1.00
9699;DHT22;10089;47.876;8.346;2023-11-19T13:27:51;12.00;1.00
9699;DHT22;10089;47.876;8.346;2023-11-19T13:30:17;11.90;1.00
9699;DHT22;10089;47.876;8.346;2023-11-19T13:32:42;11.90;99.90
9699;DHT22;10089;47.876;8.346;2023-11-19T13:35:09;11.90;1.00
9699;DHT22;10089;47.876;8.346;2023-11-19T13:37:35;11.70;99.90
9699;DHT22;10089;47.876;8.346;2023-11-19T13:40:01;11.70;99.90
9699;DHT22;10089;47.876;8.346;2023-11-19T13:43:24;11.70;99.90
9699;DHT22;10089;47.876;8.346;2023-11-19T13:46:38;11.60;99.90
9699;DHT22;10089;47.876;8.346;2023-11-19T13:57:24;11.40;1.00
9699;DHT22;10089;47.876;8.346;2023-11-19T14:04:28;11.20;99.90
9699;DHT22;10089;47.876;8.346;2023-11-19T14:07:01;11.20;1.00
9699;DHT22;10089;47.876;8.346;2023-11-19T14:09:42;11.20;1.00
9699;DHT22;10089;47.876;8.346;2023-11-19T14:12:18;11.10;1.00
9699;DHT22;10089;47.876;8.346;2023-11-19T14:14:46;11.00;1.00
9699;DHT22;10089;47.876;8.346;2023-11-19T14:17:14;11.00;99.90
9699;DHT22;10089;47.876;8.346;2023-11-19T14:19:42;10.90;99.90
9699;DHT22;10089;47.876;8.346;2023-11-19T14:22:08;10.90;99.90
9699;DHT22;10089;47.876;8.346;2023-11-19T14:24:37;10.90;1.00
9699;DHT22;10089;47.876;8.346;2023-11-19T14:27:04;10.80;1.00
9699;DHT22;10089;47.876;8.346;2023-11-19T14:30:12;10.70;99.90
9699;DHT22;10089;47.876;8.346;2023-11-19T14:33:15;10.70;99.90
9699;DHT22;10089;47.876;8.346;2023-11-19T14:35:46;10.60;1.00
9699;DHT22;10089;47.876;8.346;2023-11-19T14:38:17;10.50;1.00
9699;DHT22;10089;47.876;8.346;2023-11-19T14:40:48;10.50;1.00
9699;DHT22;10089;47.876;8.346;2023-11-19T14:43:13;10.40;4.40
9699;DHT22;10089;47.876;8.346;2023-11-19T14:45:42;10.40;22.90
9699;DHT22;10089;47.876;8.346;2023-11-19T14:48:10;10.40;1.00
9699;DHT22;10089;47.876;8.346;2023-11-19T14:50:36;10.60;99.90
9699;DHT22;10089;47.876;8.346;2023-11-19T14:53:07;10.10;1.00
9699;DHT22;10089;47.876;8.346;2023-11-19T14:55:42;10.20;1.00
9699;DHT22;10089;47.876;8.346;2023-11-19T14:58:23;10.00;1.00
9699;DHT22;10089;47.876;8.346;2023-11-19T15:01:17;10.00;1.00
9699;DHT22;10089;47.876;8.346;2023-11-19T15:03:54;9.90;94.60
9699;DHT22;10089;47.876;8.346;2023-11-19T15:06:41;9.80;99.90
9699;DHT22;10089;47.876;8.346;2023-11-19T15:09:14;9.80;99.90
9699;DHT22;10089;47.876;8.346;2023-11-19T15:11:45;9.70;99.90
9699;DHT22;10089;47.876;8.346;2023-11-19T15:14:15;10.00;99.90
9699;DHT22;10089;47.876;8.346;2023-11-19T15:16:42;9.60;99.90
9699;DHT22;10089;47.876;8.346;2023-11-19T15:19:09;9.60;99.90
9699;DHT22;10089;47.876;8.346;2023-11-19T15:21:35;9.50;99.90
9699;DHT22;10089;47.876;8.346;2023-11-19T15:24:01;9.70;99.90
9699;DHT22;10089;47.876;8.346;2023-11-19T15:26:30;9.50;99.90
9699;DHT22;10089;47.876;8.346;2023-11-19T15:28:56;9.50;99.90
9699;DHT22;10089;47.876;8.346;2023-11-19T15:31:23;9.40;99.90
9699;DHT22;10089;47.876;8.346;2023-11-19T15:33:49;9.40;99.90
9699;DHT22;10089;47.876;8.346;2023-11-19T15:36:16;9.30;99.90
9699;DHT22;10089;47.876;8.346;2023-11-19T15:38:43;9.20;99.90
9699;DHT22;10089;47.876;8.346;2023-11-19T15:41:08;9.20;99.90
9699;DHT22;10089;47.876;8.346;2023-11-19T15:43:34;9.20;99.90
9699;DHT22;10089;47.876;8.346;2023-11-19T15:46:00;9.20;99.90
9699;DHT22;10089;47.876;8.346;2023-11-19T15:48:25;9.10;99.90
9699;DHT22;10089;47.876;8.346;2023-11-19T15:50:52;9.20;99.90
9699;DHT22;10089;47.876;8.346;2023-11-19T15:53:18;9.10;1.00
9699;DHT22;10089;47.876;8.346;2023-11-19T15:55:44;9.00;1.00
9699;DHT22;10089;47.876;8.346;2023-11-19T15:58:10;9.40;99.90
9699;DHT22;10089;47.876;8.346;2023-11-19T16:00:36;9.10;99.90
9699;DHT22;10089;47.876;8.346;2023-11-19T16:03:03;9.10;99.90
9699;DHT22;10089;47.876;8.346;2023-11-19T16:05:32;9.10;99.90
9699;DHT22;10089;47.876;8.346;2023-11-19T16:07:58;9.20;99.90
9699;DHT22;10089;47.876;8.346;2023-11-19T16:10:23;9.20;99.90
9699;DHT22;10089;47.876;8.346;2023-11-19T16:12:49;9.10;99.90
9699;DHT22;10089;47.876;8.346;2023-11-19T16:15:15;9.10;99.90
9699;DHT22;10089;47.876;8.346;2023-11-19T16:17:42;9.10;99.90
9699;DHT22;10089;47.876;8.346;2023-11-19T16:20:09;9.00;99.90
9699;DHT22;10089;47.876;8.346;2023-11-19T16:22:39;9.00;99.90
9699;DHT22;10089;47.876;8.346;2023-11-19T16:25:08;9.10;99.90
9699;DHT22;10089;47.876;8.346;2023-11-19T16:27:37;9.10;99.90
9699;DHT22;10089;47.876;8.346;2023-11-19T16:30:05;9.00;99.90
9699;DHT22;10089;47.876;8.346;2023-11-19T16:32:32;9.00;99.90
9699;DHT22;10089;47.876;8.346;2023-11-19T16:35:00;9.00;99.90
9699;DHT22;10089;47.876;8.346;2023-11-19T16:37:26;9.00;99.90
9699;DHT22;10089;47.876;8.346;2023-11-19T16:40:01;9.00;99.90
9699;DHT22;10089;47.876;8.346;2023-11-19T16:42:33;8.90;99.90
9699;DHT22;10089;47.876;8.346;2023-11-19T16:45:00;9.00;99.90
9699;DHT22;10089;47.876;8.346;2023-11-19T16:47:32;8.90;1.00
9699;DHT22;10089;47.876;8.346;2023-11-19T16:50:17;8.90;1.00
9699;DHT22;10089;47.876;8.346;2023-11-19T16:52:45;8.90;1.00
9699;DHT22;10089;47.876;8.346;2023-11-19T16:55:14;8.90;1.00
9699;DHT22;10089;47.876;8.346;2023-11-19T16:57:41;8.90;1.00